Time;durP1;ratioP1;P1;durP2;ratioP2;P2;SDS_P1;SDS_P2;PMS_P1;PMS_P2;Temp;Humidity;BMP_temperature;BMP_pressure;BME280_temperature;BME280_humidity;BME280_pressure;Samples;Min_cycle;Max_cycle;Signal;HPM_P1;HPM_P2
2022/02/15 00:01:22;;;;;;;12.90;4.53;;;6.60;99.90;;;;;;5023459;28;20203;-69
2022/02/15 00:04:29;;;;;;;11.90;4.03;;;6.60;99.90;;;;;;5023150;28;20251;-69
2022/02/15 00:07:36;;;;;;;9.93;4.47;;;6.60;99.90;;;;;;5025114;28;20274;-69
2022/02/15 00:10:08;;;;;;;6.63;4.20;;;6.60;99.90;;;;;;5005563;28;20189;-69
2022/02/15 00:12:37;;;;;;;5.73;3.80;;;6.60;99.90;;;;;;5024572;28;20198;-69
2022/02/15 00:15:07;;;;;;;19.43;4.90;;;6.60;99.90;;;;;;5024381;28;20224;-69
2022/02/15 00:17:36;;;;;;;9.33;3.83;;;6.60;99.90;;;;;;5026886;28;20645;-69
2022/02/15 00:20:07;;;;;;;10.20;3.90;;;6.60;99.90;;;;;;5025836;28;20647;-69
2022/02/15 00:22:37;;;;;;;7.40;3.80;;;6.60;99.90;;;;;;5024420;28;20205;-69
2022/02/15 00:25:06;;;;;;;9.97;4.17;;;6.60;99.90;;;;;;5035089;28;20571;-69
2022/02/15 00:27:35;;;;;;;12.70;3.80;;;6.60;99.90;;;;;;5035884;28;20197;-69
2022/02/15 00:30:04;;;;;;;8.53;4.40;;;6.60;99.90;;;;;;5035996;28;20190;-69
2022/02/15 00:32:32;;;;;;;13.93;4.03;;;6.60;99.90;;;;;;5040498;28;20202;-69
2022/02/15 00:35:01;;;;;;;12.77;4.30;;;6.60;99.90;;;;;;5036010;28;20240;-69
2022/02/15 00:37:29;;;;;;;10.67;4.13;;;6.60;99.90;;;;;;5031501;28;20263;-69
2022/02/15 00:39:58;;;;;;;11.90;4.27;;;6.60;99.90;;;;;;5026149;28;20316;-69
2022/02/15 00:42:27;;;;;;;11.00;4.20;;;6.60;99.90;;;;;;5022026;28;20193;-69
2022/02/15 00:44:55;;;;;;;7.03;3.90;;;6.60;99.90;;;;;;5017844;28;20537;-69
2022/02/15 00:47:24;;;;;;;13.33;4.10;;;6.60;99.90;;;;;;5021733;28;20189;-69
2022/02/15 00:49:52;;;;;;;10.17;3.87;;;6.60;99.90;;;;;;5024146;28;20204;-69
2022/02/15 00:52:20;;;;;;;13.83;3.83;;;6.60;99.90;;;;;;5032152;28;20193;-69
2022/02/15 00:54:48;;;;;;;8.90;4.00;;;6.60;99.90;;;;;;5025153;28;20671;-69
2022/02/15 00:57:18;;;;;;;5.80;4.13;;;6.60;99.90;;;;;;5024039;28;20273;-68
2022/02/15 00:59:46;;;;;;;6.27;4.17;;;6.60;99.90;;;;;;5025655;28;20249;-69
2022/02/15 01:02:15;;;;;;;8.20;4.30;;;6.60;99.90;;;;;;5022729;28;20190;-69
2022/02/15 01:04:43;;;;;;;11.70;4.17;;;6.60;99.90;;;;;;5024038;28;20685;-68
2022/02/15 01:07:11;;;;;;;15.03;4.80;;;6.50;99.90;;;;;;5025918;28;20264;-69
2022/02/15 01:09:40;;;;;;;12.37;4.40;;;6.50;99.90;;;;;;5023964;28;20749;-69
2022/02/15 01:12:09;;;;;;;6.63;4.40;;;6.50;99.90;;;;;;5020351;28;20277;-69
2022/02/15 01:14:40;;;;;;;9.73;4.23;;;6.50;99.90;;;;;;5022610;28;20201;-69
2022/02/15 01:17:08;;;;;;;11.97;4.93;;;6.40;99.90;;;;;;5023898;28;20297;-69
2022/02/15 01:19:39;;;;;;;13.73;4.93;;;6.40;99.90;;;;;;5025665;28;20239;-69
2022/02/15 01:22:08;;;;;;;12.83;4.73;;;6.40;99.90;;;;;;5025979;28;20655;-69
2022/02/15 01:24:36;;;;;;;7.93;5.00;;;6.30;99.90;;;;;;5022345;28;20594;-69
2022/02/15 01:27:05;;;;;;;7.53;4.63;;;6.30;99.90;;;;;;5022312;28;20662;-68
2022/02/15 01:29:33;;;;;;;13.07;4.90;;;6.30;99.90;;;;;;5018264;28;20549;-69
2022/02/15 01:32:04;;;;;;;9.70;5.27;;;6.40;99.90;;;;;;5024144;28;20193;-69
2022/02/15 01:34:32;;;;;;;7.93;4.37;;;6.40;99.90;;;;;;5018225;28;20202;-68
2022/02/15 01:37:00;;;;;;;12.40;5.77;;;6.40;99.90;;;;;;5020765;28;20229;-68
2022/02/15 01:39:29;;;;;;;7.80;4.90;;;6.40;99.90;;;;;;5023005;28;20260;-68
2022/02/15 01:41:59;;;;;;;15.50;5.50;;;6.50;99.90;;;;;;5021040;28;20281;-68
2022/02/15 01:44:27;;;;;;;10.97;5.10;;;6.50;99.90;;;;;;5021580;28;20229;-68
2022/02/15 01:46:56;;;;;;;11.40;5.60;;;6.50;99.90;;;;;;5020583;28;20210;-67
2022/02/15 01:49:25;;;;;;;9.33;5.13;;;6.50;99.90;;;;;;5017296;28;20185;-68
2022/02/15 01:51:54;;;;;;;10.73;5.93;;;6.50;99.90;;;;;;5023005;28;20205;-68
2022/02/15 01:54:22;;;;;;;10.13;5.97;;;6.50;99.90;;;;;;5022603;28;20252;-68
2022/02/15 01:56:50;;;;;;;11.97;5.93;;;6.50;99.90;;;;;;5024727;28;20691;-69
2022/02/15 01:59:19;;;;;;;7.27;5.20;;;6.50;99.90;;;;;;5004051;28;20701;-68
2022/02/15 02:01:47;;;;;;;12.83;5.87;;;6.50;99.90;;;;;;5020808;28;20225;-69
2022/02/15 02:06:59;;;;;;;13.07;6.43;;;6.40;99.90;;;;;;5021967;28;20707;-68
2022/02/15 02:09:28;;;;;;;11.47;6.30;;;6.30;99.90;;;;;;5021083;28;20202;-68
2022/02/15 02:11:58;;;;;;;10.73;6.70;;;6.20;99.90;;;;;;5018146;28;20668;-68
2022/02/15 02:14:26;;;;;;;13.67;6.80;;;6.20;99.90;;;;;;5010330;28;20200;-68
2022/02/15 02:16:55;;;;;;;11.27;6.90;;;6.20;99.90;;;;;;5023912;28;20281;-68
2022/02/15 02:19:23;;;;;;;15.53;6.97;;;6.20;99.90;;;;;;5026291;28;20371;-68
2022/02/15 02:21:54;;;;;;;12.97;7.50;;;6.30;99.90;;;;;;5016907;28;20284;-68
2022/02/15 02:24:22;;;;;;;12.30;7.73;;;6.30;99.90;;;;;;5032517;28;20259;-68
2022/02/15 02:26:51;;;;;;;12.97;7.47;;;6.20;99.90;;;;;;5021117;28;20197;-68
2022/02/15 02:29:20;;;;;;;13.47;7.40;;;6.20;99.90;;;;;;5018606;28;20190;-69
2022/02/15 02:31:48;;;;;;;14.43;7.33;;;6.20;99.90;;;;;;5018060;28;20304;-68
2022/02/15 02:34:17;;;;;;;13.50;6.90;;;6.10;99.90;;;;;;5023104;28;20271;-68
2022/02/15 02:36:47;;;;;;;13.23;7.93;;;6.10;99.90;;;;;;5022027;28;20201;-68
2022/02/15 02:39:17;;;;;;;13.13;7.47;;;6.10;99.90;;;;;;5027546;28;20610;-68
2022/02/15 02:41:45;;;;;;;18.53;7.83;;;6.00;99.90;;;;;;5024132;28;20227;-69
2022/02/15 02:44:13;;;;;;;18.30;7.73;;;5.90;99.90;;;;;;5020160;28;20280;-68
2022/02/15 02:46:42;;;;;;;11.53;7.30;;;5.90;99.90;;;;;;5018859;28;20248;-68
2022/02/15 02:49:10;;;;;;;16.10;8.37;;;5.90;99.90;;;;;;5022440;28;20274;-68
2022/02/15 02:51:38;;;;;;;12.97;8.60;;;5.90;99.90;;;;;;5016757;28;20284;-69
2022/02/15 02:54:07;;;;;;;12.80;7.77;;;5.90;99.90;;;;;;5022530;28;20300;-68
2022/02/15 02:56:36;;;;;;;14.53;7.60;;;5.90;99.90;;;;;;5021802;28;20241;-67
2022/02/15 02:59:04;;;;;;;15.67;7.50;;;5.90;99.90;;;;;;5024319;28;20217;-68
2022/02/15 03:01:33;;;;;;;11.77;7.20;;;5.90;99.90;;;;;;5017859;28;20317;-68
2022/02/15 03:04:01;;;;;;;11.03;6.90;;;5.80;99.90;;;;;;5025708;28;20224;-68
2022/02/15 03:06:29;;;;;;;13.23;7.20;;;5.80;99.90;;;;;;5025058;28;20229;-68
2022/02/15 03:08:58;;;;;;;17.23;6.40;;;5.80;99.90;;;;;;5029704;28;20731;-68
2022/02/15 03:11:26;;;;;;;13.03;7.10;;;5.80;99.90;;;;;;5018322;28;20678;-68
2022/02/15 03:13:56;;;;;;;11.43;7.53;;;5.80;99.90;;;;;;5024935;28;20190;-69
2022/02/15 03:16:24;;;;;;;15.67;7.00;;;5.70;99.90;;;;;;5020157;28;20297;-68
2022/02/15 03:18:53;;;;;;;11.03;6.50;;;5.70;99.90;;;;;;5026884;28;20194;-69
2022/02/15 03:21:22;;;;;;;13.17;6.40;;;5.70;99.90;;;;;;5021644;28;20267;-69
2022/02/15 03:23:50;;;;;;;18.17;6.87;;;5.70;99.90;;;;;;5021360;28;20292;-68
2022/02/15 03:26:19;;;;;;;12.10;6.47;;;5.70;99.90;;;;;;5020525;28;20189;-68
2022/02/15 03:28:48;;;;;;;12.60;6.97;;;5.70;99.90;;;;;;5022053;28;20782;-68
2022/02/15 03:31:17;;;;;;;15.03;6.97;;;5.70;99.90;;;;;;5017070;28;20656;-69
2022/02/15 03:33:46;;;;;;;16.43;6.60;;;5.80;99.90;;;;;;5023613;28;20802;-68
2022/02/15 03:36:15;;;;;;;16.83;6.83;;;5.80;99.90;;;;;;5027774;28;20590;-68
2022/02/15 03:38:44;;;;;;;11.13;6.47;;;5.90;99.90;;;;;;5026225;28;20193;-68
2022/02/15 03:43:58;;;;;;;14.13;6.53;;;6.00;99.90;;;;;;5029973;28;20224;-68
2022/02/15 03:46:28;;;;;;;12.13;6.40;;;6.00;99.90;;;;;;5022917;28;20259;-68
2022/02/15 03:48:56;;;;;;;11.30;5.93;;;6.00;99.90;;;;;;5027046;28;20490;-67
2022/02/15 03:51:24;;;;;;;16.27;7.53;;;6.10;99.90;;;;;;5023279;28;20292;-68
2022/02/15 03:53:53;;;;;;;11.20;6.80;;;6.10;99.90;;;;;;5026410;28;20217;-68
2022/02/15 03:56:22;;;;;;;10.90;6.47;;;6.10;99.90;;;;;;5028090;28;20189;-68
2022/02/15 03:58:50;;;;;;;7.63;5.80;;;6.10;99.90;;;;;;5021329;28;20248;-68
2022/02/15 04:01:19;;;;;;;9.83;6.13;;;6.10;99.90;;;;;;5030029;28;20327;-68
2022/02/15 04:03:48;;;;;;;10.30;6.60;;;6.20;99.90;;;;;;5026709;28;20194;-68
2022/02/15 04:06:16;;;;;;;12.07;6.47;;;6.20;99.90;;;;;;5022663;28;20225;-69
2022/02/15 04:08:45;;;;;;;10.90;5.90;;;6.20;99.90;;;;;;5028842;28;20230;-68
2022/02/15 04:11:13;;;;;;;13.13;6.40;;;6.20;99.90;;;;;;5021128;28;20224;-67
2022/02/15 04:13:41;;;;;;;8.80;5.40;;;6.30;99.90;;;;;;5024141;28;20194;-68
2022/02/15 04:16:10;;;;;;;10.30;5.80;;;6.20;99.90;;;;;;5027628;28;20232;-68
2022/02/15 04:18:43;;;;;;;10.07;5.20;;;6.20;99.90;;;;;;5027512;28;20193;-69
2022/02/15 04:21:15;;;;;;;10.70;5.67;;;6.20;99.90;;;;;;5018964;28;20206;-68
2022/02/15 04:23:44;;;;;;;10.43;5.33;;;6.20;99.90;;;;;;5018770;28;20230;-68
2022/02/15 04:26:12;;;;;;;10.77;5.57;;;6.20;99.90;;;;;;5021522;28;20205;-68
2022/02/15 04:28:40;;;;;;;7.03;4.90;;;6.10;99.90;;;;;;5026842;28;20204;-69
2022/02/15 04:31:09;;;;;;;8.60;4.77;;;6.20;99.90;;;;;;5022791;28;20190;-67
2022/02/15 04:33:40;;;;;;;7.87;4.47;;;6.10;99.90;;;;;;5023182;28;20205;-69
2022/02/15 04:36:08;;;;;;;10.13;4.60;;;6.10;99.90;;;;;;5027714;28;20216;-69
2022/02/15 04:38:38;;;;;;;9.50;4.40;;;6.20;99.90;;;;;;5035110;28;20210;-69
2022/02/15 04:41:06;;;;;;;12.80;4.10;;;6.20;99.90;;;;;;5028361;28;20223;-68
2022/02/15 04:43:35;;;;;;;8.23;4.00;;;6.20;99.90;;;;;;5020199;28;20668;-68
2022/02/15 04:46:03;;;;;;;14.03;4.47;;;6.20;99.90;;;;;;5018462;28;20190;-68
2022/02/15 04:48:32;;;;;;;9.00;4.27;;;6.30;99.90;;;;;;5034335;28;20202;-68
2022/02/15 04:51:00;;;;;;;10.17;4.17;;;6.30;99.90;;;;;;5025762;28;20793;-68
2022/02/15 04:53:28;;;;;;;6.43;3.53;;;6.30;99.90;;;;;;5022763;28;20557;-68
2022/02/15 04:56:02;;;;;;;10.73;3.53;;;6.30;99.90;;;;;;5018676;28;20201;-68
2022/02/15 04:58:31;;;;;;;8.90;3.73;;;6.30;99.90;;;;;;5024814;28;20715;-69
2022/02/15 05:01:00;;;;;;;7.37;3.70;;;6.30;99.90;;;;;;5022377;28;20205;-68
2022/02/15 05:03:28;;;;;;;5.13;3.37;;;6.30;99.90;;;;;;5018500;28;20244;-68
2022/02/15 05:05:57;;;;;;;5.97;3.50;;;6.30;99.90;;;;;;5035468;28;20201;-68
2022/02/15 05:08:25;;;;;;;9.70;3.57;;;6.30;99.90;;;;;;5019389;28;20229;-68
2022/02/15 05:10:54;;;;;;;5.70;3.83;;;6.20;99.90;;;;;;5019553;28;20682;-68
2022/02/15 05:13:27;;;;;;;10.50;3.70;;;6.20;99.90;;;;;;5023267;28;20675;-69
2022/02/15 05:15:55;;;;;;;8.27;4.00;;;6.20;99.90;;;;;;5023085;28;20559;-68
2022/02/15 05:18:25;;;;;;;10.37;4.03;;;6.20;99.90;;;;;;5024193;28;20587;-69
2022/02/15 05:20:54;;;;;;;8.70;4.00;;;6.20;99.90;;;;;;5023715;28;20220;-68
2022/02/15 05:23:22;;;;;;;7.63;4.60;;;6.20;99.90;;;;;;5030243;28;20674;-68
2022/02/15 05:25:51;;;;;;;9.30;4.10;;;6.20;99.90;;;;;;5023684;28;20220;-68
2022/02/15 05:28:19;;;;;;;7.17;4.20;;;6.20;99.90;;;;;;5022455;28;20666;-68
2022/02/15 05:30:49;;;;;;;9.03;4.27;;;6.10;99.90;;;;;;5025567;28;20789;-68
2022/02/15 05:33:18;;;;;;;8.93;4.07;;;6.10;99.90;;;;;;5012879;28;20803;-69
2022/02/15 05:35:46;;;;;;;5.57;3.90;;;6.10;99.90;;;;;;5022719;28;20198;-68
2022/02/15 05:38:15;;;;;;;9.30;4.33;;;6.10;99.90;;;;;;5022187;28;20659;-68
2022/02/15 05:40:44;;;;;;;12.60;4.30;;;6.10;99.90;;;;;;5020163;28;20686;-68
2022/02/15 05:43:14;;;;;;;8.37;4.30;;;6.00;99.90;;;;;;5025453;28;20644;-69
2022/02/15 05:45:48;;;;;;;9.40;4.00;;;6.10;99.90;;;;;;5025474;28;20724;-68
2022/02/15 05:48:17;;;;;;;8.13;4.00;;;6.10;99.90;;;;;;5026585;28;20197;-68
2022/02/15 05:50:49;;;;;;;6.83;3.90;;;6.10;99.90;;;;;;5035496;28;20213;-69
2022/02/15 05:53:17;;;;;;;8.67;4.50;;;6.10;99.90;;;;;;5026896;28;20225;-69
2022/02/15 05:55:48;;;;;;;7.93;3.93;;;6.10;99.90;;;;;;5023636;28;20267;-68
2022/02/15 05:58:17;;;;;;;9.03;4.20;;;6.00;99.90;;;;;;5032140;28;20679;-68
2022/02/15 06:00:45;;;;;;;10.43;3.50;;;6.00;99.90;;;;;;5018770;28;20778;-68
2022/02/15 06:06:02;;;;;;;10.43;4.20;;;5.90;99.90;;;;;;5025611;28;20202;-68
2022/02/15 06:08:31;;;;;;;7.00;3.50;;;5.80;99.90;;;;;;5015960;28;20193;-68
2022/02/15 06:10:59;;;;;;;10.93;3.63;;;5.80;99.90;;;;;;5023693;28;20673;-68
2022/02/15 06:13:28;;;;;;;9.37;2.90;;;5.90;99.90;;;;;;5036511;28;20201;-68
2022/02/15 06:15:56;;;;;;;7.27;3.47;;;5.90;99.90;;;;;;5027593;28;20225;-67
2022/02/15 06:18:26;;;;;;;9.20;3.30;;;6.00;99.90;;;;;;5022595;28;20208;-68
2022/02/15 06:20:55;;;;;;;9.47;3.13;;;6.00;99.90;;;;;;5028296;28;20573;-69
2022/02/15 06:23:24;;;;;;;6.73;3.23;;;6.00;99.90;;;;;;5019849;28;20198;-68
2022/02/15 06:25:52;;;;;;;6.47;3.40;;;6.00;99.90;;;;;;5016279;28;20686;-68
2022/02/15 06:28:20;;;;;;;5.63;3.00;;;6.00;99.90;;;;;;5022120;28;20204;-68
2022/02/15 06:30:49;;;;;;;10.40;3.47;;;6.00;99.90;;;;;;5020456;28;20281;-68
2022/02/15 06:33:17;;;;;;;5.70;2.90;;;6.00;99.90;;;;;;5025624;28;20281;-68
2022/02/15 06:35:47;;;;;;;10.13;2.80;;;6.00;99.90;;;;;;5025600;28;20208;-68
2022/02/15 06:38:20;;;;;;;3.47;3.00;;;6.00;99.90;;;;;;5031026;28;20193;-68
2022/02/15 06:40:49;;;;;;;9.47;2.80;;;6.00;99.90;;;;;;5020961;28;20205;-68
2022/02/15 06:43:17;;;;;;;9.73;2.80;;;5.90;99.90;;;;;;5023537;28;20229;-68
2022/02/15 06:45:46;;;;;;;10.10;3.30;;;5.90;99.90;;;;;;5018945;28;20228;-68
2022/02/15 06:48:14;;;;;;;10.27;2.90;;;5.80;99.90;;;;;;5019298;28;20209;-68
2022/02/15 06:50:43;;;;;;;5.43;2.90;;;5.80;99.90;;;;;;5019949;28;20219;-68
2022/02/15 06:53:13;;;;;;;9.43;2.90;;;5.70;99.90;;;;;;5021743;28;20203;-68
2022/02/15 06:56:01;;;;;;;6.63;2.93;;;5.60;99.90;;;;;;5023697;28;20201;-68
2022/02/15 06:58:30;;;;;;;8.20;2.83;;;5.50;99.90;;;;;;5028840;28;20217;-68
2022/02/15 07:00:58;;;;;;;4.13;2.90;;;5.40;99.90;;;;;;5019554;28;20215;-67
2022/02/15 07:03:29;;;;;;;9.47;3.67;;;5.30;99.90;;;;;;5022041;28;20306;-68
2022/02/15 07:05:58;;;;;;;10.73;3.57;;;5.20;99.90;;;;;;5020284;28;20193;-67
2022/02/15 07:08:28;;;;;;;11.20;3.17;;;5.10;99.90;;;;;;5023711;28;20855;-68
2022/02/15 07:10:57;;;;;;;8.70;3.37;;;5.10;99.90;;;;;;5030215;28;20255;-67
2022/02/15 07:13:26;;;;;;;6.20;3.20;;;5.10;99.90;;;;;;5018834;28;20201;-69
2022/02/15 07:15:54;;;;;;;7.27;3.37;;;5.10;99.90;;;;;;5026105;28;20309;-68
2022/02/15 07:18:26;;;;;;;8.47;3.00;;;5.00;99.90;;;;;;5035367;28;20208;-68
2022/02/15 07:20:54;;;;;;;5.97;2.77;;;5.00;99.90;;;;;;5021601;28;20201;-68
2022/02/15 07:23:25;;;;;;;7.43;3.03;;;5.00;99.90;;;;;;5031199;28;20217;-68
2022/02/15 07:25:55;;;;;;;5.67;3.10;;;5.00;99.90;;;;;;5022907;28;20205;-68
2022/02/15 07:28:24;;;;;;;10.07;3.40;;;4.90;99.90;;;;;;5021540;28;20668;-68
2022/02/15 07:30:52;;;;;;;11.97;3.50;;;4.80;99.90;;;;;;5024689;28;20762;-68
2022/02/15 07:33:21;;;;;;;8.13;3.20;;;4.80;99.90;;;;;;5021120;28;20204;-68
2022/02/15 07:35:49;;;;;;;8.63;3.03;;;4.70;99.90;;;;;;5024575;28;20233;-68
2022/02/15 07:38:20;;;;;;;8.17;2.80;;;4.70;99.90;;;;;;5022891;28;20193;-68
2022/02/15 07:40:49;;;;;;;13.13;3.10;;;4.70;99.90;;;;;;5016044;28;20316;-68
2022/02/15 07:43:19;;;;;;;8.27;2.83;;;4.70;99.90;;;;;;5023279;28;20233;-68
2022/02/15 07:45:47;;;;;;;8.83;2.60;;;4.80;99.90;;;;;;5018617;28;20209;-68
2022/02/15 07:48:15;;;;;;;4.67;2.60;;;4.90;99.90;;;;;;5033035;28;20194;-68
2022/02/15 07:50:44;;;;;;;10.87;3.07;;;4.90;99.90;;;;;;5026648;28;20208;-68
2022/02/15 07:53:13;;;;;;;9.57;3.50;;;5.00;99.90;;;;;;5026807;28;20197;-68
2022/02/15 07:55:42;;;;;;;8.93;3.10;;;5.10;99.90;;;;;;5023964;28;20251;-69
2022/02/15 07:58:13;;;;;;;6.73;2.67;;;5.20;99.90;;;;;;5027690;28;20204;-68
2022/02/15 08:00:43;;;;;;;10.73;2.57;;;5.20;99.90;;;;;;5023103;28;20208;-69
2022/02/15 08:03:11;;;;;;;8.27;2.70;;;5.30;99.90;;;;;;5025486;28;20222;-68
2022/02/15 08:05:41;;;;;;;8.80;2.77;;;5.50;99.90;;;;;;5026202;28;20206;-68
2022/02/15 08:08:10;;;;;;;10.77;2.80;;;5.50;99.90;;;;;;5025572;28;20225;-68
2022/02/15 08:10:38;;;;;;;4.93;2.60;;;5.60;99.90;;;;;;5024358;28;20203;-68
2022/02/15 08:13:08;;;;;;;5.80;2.90;;;5.70;99.90;;;;;;5028012;28;20229;-68
2022/02/15 08:15:41;;;;;;;11.10;3.40;;;5.80;99.90;;;;;;5027303;28;20213;-68
2022/02/15 08:18:10;;;;;;;5.07;2.70;;;5.90;99.90;;;;;;5023586;28;20201;-68
2022/02/15 08:20:40;;;;;;;10.50;2.70;;;6.00;99.90;;;;;;5037404;28;20210;-68
2022/02/15 08:23:09;;;;;;;3.77;2.43;;;6.10;99.90;;;;;;5026779;28;20304;-68
2022/02/15 08:25:38;;;;;;;9.10;2.73;;;6.30;99.90;;;;;;5027843;28;20224;-68
2022/02/15 08:28:07;;;;;;;4.73;2.73;;;6.40;99.90;;;;;;5032778;28;20206;-68
2022/02/15 08:30:35;;;;;;;21.83;11.50;;;6.50;99.90;;;;;;5035013;28;20245;-68
2022/02/15 08:33:03;;;;;;;11.80;4.20;;;6.60;99.90;;;;;;5020844;28;20655;-68
2022/02/15 08:35:33;;;;;;;12.27;3.53;;;6.80;99.90;;;;;;5024903;28;20198;-68
2022/02/15 08:38:02;;;;;;;10.30;6.33;;;7.00;99.90;;;;;;5027589;28;20202;-68
2022/02/15 08:40:31;;;;;;;4.57;3.23;;;7.20;99.90;;;;;;5024172;28;20260;-68
2022/02/15 08:43:00;;;;;;;42.57;27.60;;;7.40;99.90;;;;;;5022528;28;20225;-68
2022/02/15 08:45:29;;;;;;;6.50;4.10;;;7.40;99.90;;;;;;5022025;28;20208;-68
2022/02/15 08:47:57;;;;;;;7.80;4.70;;;7.50;99.90;;;;;;5026387;28;20288;-68
2022/02/15 08:50:26;;;;;;;9.40;3.77;;;7.70;99.90;;;;;;5019430;28;20194;-68
2022/02/15 08:52:56;;;;;;;9.33;3.00;;;7.90;99.90;;;;;;5025631;28;20194;-68
2022/02/15 08:55:25;;;;;;;7.03;3.20;;;8.10;99.90;;;;;;5023493;28;20198;-68
2022/02/15 08:57:53;;;;;;;8.07;4.33;;;8.20;99.90;;;;;;5031451;28;20213;-69
2022/02/15 09:00:21;;;;;;;10.93;2.80;;;8.30;99.90;;;;;;5029730;28;20201;-68
2022/02/15 09:02:50;;;;;;;9.90;3.03;;;8.30;99.90;;;;;;5026387;28;20283;-68
2022/02/15 09:05:19;;;;;;;8.97;2.80;;;8.40;99.90;;;;;;5023029;28;20213;-68
2022/02/15 09:07:49;;;;;;;4.87;2.70;;;8.50;99.90;;;;;;5022437;28;20229;-68
2022/02/15 09:10:19;;;;;;;9.57;3.37;;;8.60;99.90;;;;;;5027840;28;20205;-68
2022/02/15 09:12:47;;;;;;;9.27;2.87;;;8.70;99.90;;;;;;5026423;28;20191;-68
2022/02/15 09:15:18;;;;;;;6.30;2.60;;;8.80;99.90;;;;;;5032953;28;20212;-68
2022/02/15 09:17:47;;;;;;;8.90;3.00;;;8.80;99.90;;;;;;5024526;28;20279;-69
2022/02/15 09:20:16;;;;;;;8.87;2.70;;;8.90;99.90;;;;;;5024268;28;20232;-68
2022/02/15 09:22:44;;;;;;;6.57;3.40;;;9.00;99.90;;;;;;5024609;28;20212;-68
2022/02/15 09:25:13;;;;;;;8.33;2.93;;;9.00;99.90;;;;;;5028934;28;20256;-68
2022/02/15 09:27:43;;;;;;;6.60;3.40;;;9.10;99.90;;;;;;5027483;28;20277;-68
2022/02/15 09:30:12;;;;;;;9.57;3.10;;;9.30;99.90;;;;;;5018539;28;20757;-68
2022/02/15 09:32:40;;;;;;;5.97;3.67;;;9.50;99.90;;;;;;5027654;28;20208;-69
2022/02/15 09:35:09;;;;;;;7.73;2.57;;;9.80;99.90;;;;;;5030882;28;20193;-68
2022/02/15 09:37:38;;;;;;;8.70;3.00;;;10.00;99.90;;;;;;5032033;28;20198;-69
2022/02/15 09:40:07;;;;;;;5.57;2.50;;;10.10;99.90;;;;;;5027232;28;20196;-68
2022/02/15 09:42:37;;;;;;;8.70;2.40;;;10.10;99.90;;;;;;5024335;28;20206;-68
2022/02/15 09:45:09;;;;;;;8.70;2.73;;;9.90;99.90;;;;;;5041402;28;20235;-69
2022/02/15 09:47:41;;;;;;;8.83;3.77;;;10.00;99.90;;;;;;5022191;28;20201;-69
2022/02/15 09:50:13;;;;;;;16.80;5.20;;;10.30;99.90;;;;;;5017727;28;20274;-69
2022/02/15 09:52:46;;;;;;;11.07;4.60;;;10.40;99.90;;;;;;5017509;28;20202;-69
2022/02/15 09:55:15;;;;;;;9.60;2.73;;;10.60;99.90;;;;;;5022691;28;21438;-69
2022/02/15 09:57:44;;;;;;;7.23;2.60;;;10.70;99.90;;;;;;5008691;28;20194;-69
2022/02/15 10:00:15;;;;;;;8.83;2.70;;;10.80;99.90;;;;;;5039035;28;20202;-68
2022/02/15 10:02:44;;;;;;;8.27;2.67;;;10.80;99.90;;;;;;5020972;28;20201;-68
2022/02/15 10:05:16;;;;;;;9.23;3.47;;;10.70;99.90;;;;;;5025863;28;20280;-69
2022/02/15 10:07:53;;;;;;;8.43;3.57;;;10.70;99.90;;;;;;5023684;28;20313;-68
2022/02/15 10:10:30;;;;;;;9.90;3.10;;;10.80;99.90;;;;;;5026748;28;20185;-70
2022/02/15 10:13:04;;;;;;;13.80;5.97;;;10.90;99.90;;;;;;5018886;28;20275;-69
2022/02/15 10:15:40;;;;;;;19.17;10.47;;;10.90;99.90;;;;;;5030604;28;20197;-69
2022/02/15 10:18:11;;;;;;;16.63;8.33;;;11.00;99.90;;;;;;5021398;28;20203;-69
2022/02/15 10:20:44;;;;;;;26.10;14.77;;;11.30;99.90;;;;;;5026639;28;20216;-68
2022/02/15 10:23:25;;;;;;;13.20;5.70;;;11.50;99.90;;;;;;5014702;28;20264;-69
2022/02/15 10:25:55;;;;;;;29.43;16.33;;;11.60;99.90;;;;;;5031219;28;20207;-69
2022/02/15 10:28:25;;;;;;;24.77;12.23;;;11.90;99.90;;;;;;5019734;28;20236;-69
2022/02/15 10:30:56;;;;;;;49.17;25.73;;;12.00;99.90;;;;;;5022536;28;20202;-69
2022/02/15 10:33:29;;;;;;;18.37;10.10;;;12.10;99.90;;;;;;5028482;28;20208;-68
2022/02/15 10:35:59;;;;;;;7.00;4.07;;;12.20;99.90;;;;;;5026111;28;20602;-68
2022/02/15 10:38:30;;;;;;;10.67;4.87;;;12.30;99.90;;;;;;5022731;28;20197;-69
2022/02/15 10:41:01;;;;;;;9.13;2.60;;;12.60;99.90;;;;;;5025817;28;20563;-69
2022/02/15 10:43:42;;;;;;;4.97;2.03;;;12.70;99.90;;;;;;5014907;28;20226;-69
2022/02/15 10:46:12;;;;;;;7.63;2.47;;;12.40;99.90;;;;;;5017973;28;20699;-68
2022/02/15 10:48:41;;;;;;;10.63;2.60;;;11.70;99.90;;;;;;5025747;28;20309;-68
2022/02/15 10:51:10;;;;;;;13.63;2.70;;;11.30;99.90;;;;;;5021293;28;20196;-69
2022/02/15 10:53:59;;;;;;;8.10;2.77;;;11.20;99.90;;;;;;5014605;28;20271;-68
2022/02/15 10:56:32;;;;;;;9.87;2.70;;;11.30;99.90;;;;;;5025909;28;20699;-69
2022/02/15 10:59:04;;;;;;;9.10;2.83;;;11.40;99.90;;;;;;5017901;28;20201;-69
2022/02/15 11:01:35;;;;;;;8.87;3.03;;;11.90;99.90;;;;;;5029139;28;20208;-69
2022/02/15 11:04:43;;;;;;;5.77;2.30;;;12.40;99.90;;;;;;5019646;28;20274;-68
2022/02/15 11:07:48;;;;;;;7.63;2.67;;;12.30;99.90;;;;;;5019908;28;20244;-69
2022/02/15 11:10:21;;;;;;;8.10;2.40;;;12.30;99.90;;;;;;5020102;28;20559;-68
2022/02/15 11:12:51;;;;;;;7.37;2.97;;;12.40;99.90;;;;;;5014254;28;20217;-69
2022/02/15 11:15:22;;;;;;;6.97;2.80;;;12.50;99.90;;;;;;5017317;28;20190;-69
2022/02/15 11:17:54;;;;;;;4.97;2.50;;;12.40;99.90;;;;;;5020013;28;20616;-69
2022/02/15 11:20:27;;;;;;;7.67;2.60;;;12.30;99.90;;;;;;5015451;28;20225;-69
2022/02/15 11:22:57;;;;;;;7.83;2.60;;;12.30;99.90;;;;;;5017668;28;20193;-69
2022/02/15 11:25:33;;;;;;;7.93;2.53;;;12.10;99.90;;;;;;5012843;28;20260;-69
2022/02/15 11:28:11;;;;;;;5.13;2.80;;;11.90;99.90;;;;;;5034295;28;20197;-68
2022/02/15 11:30:44;;;;;;;4.93;2.40;;;11.80;99.90;;;;;;5019664;28;20201;-69
2022/02/15 11:33:20;;;;;;;4.60;2.57;;;12.20;99.90;;;;;;5024494;28;20202;-69
2022/02/15 11:35:53;;;;;;;10.93;2.50;;;12.70;99.90;;;;;;5022713;28;20523;-69
2022/02/15 11:38:22;;;;;;;7.23;3.17;;;12.70;99.90;;;;;;5018710;28;20673;-69
2022/02/15 11:41:02;;;;;;;10.50;3.93;;;12.80;99.90;;;;;;5020040;28;20218;-68
2022/02/15 11:43:31;;;;;;;9.63;3.90;;;13.10;99.90;;;;;;5022581;28;20292;-69
2022/02/15 11:45:59;;;;;;;7.70;2.77;;;12.50;99.90;;;;;;5032721;28;20237;-69
2022/02/15 11:48:37;;;;;;;8.17;3.67;;;12.30;99.90;;;;;;5022576;28;20193;-69
2022/02/15 11:51:17;;;;;;;7.23;3.37;;;12.20;99.90;;;;;;5018305;28;20201;-68
2022/02/15 11:53:46;;;;;;;12.03;4.00;;;11.90;99.90;;;;;;5023634;28;20668;-69
2022/02/15 11:56:17;;;;;;;6.53;2.90;;;11.80;99.90;;;;;;5022147;28;20773;-68
2022/02/15 11:58:47;;;;;;;9.20;4.63;;;12.10;99.90;;;;;;5015762;28;20233;-69
2022/02/15 12:01:26;;;;;;;10.70;6.27;;;12.50;99.90;;;;;;5021131;28;20811;-69
2022/02/15 12:03:58;;;;;;;8.80;4.37;;;12.10;99.90;;;;;;5020160;28;20758;-69
2022/02/15 12:06:37;;;;;;;9.90;3.37;;;11.80;99.90;;;;;;5020730;28;20249;-69
2022/02/15 12:09:06;;;;;;;6.13;3.00;;;11.70;99.90;;;;;;5011871;28;20197;-71
2022/02/15 12:11:38;;;;;;;11.87;2.87;;;11.70;99.90;;;;;;5022796;28;20281;-69
2022/02/15 12:14:11;;;;;;;5.70;2.40;;;11.60;99.90;;;;;;5024748;28;20200;-70
2022/02/15 12:16:43;;;;;;;7.17;3.30;;;11.50;99.90;;;;;;5028713;28;20292;-69
2022/02/15 12:19:23;;;;;;;10.17;2.77;;;11.50;99.90;;;;;;5027532;28;20197;-69
2022/02/15 12:21:52;;;;;;;9.37;3.03;;;11.80;99.90;;;;;;5021952;28;20693;-70
2022/02/15 12:24:21;;;;;;;14.60;3.57;;;12.00;99.90;;;;;;5015974;28;20202;-69
2022/02/15 12:26:51;;;;;;;7.40;2.80;;;12.10;99.90;;;;;;5021811;28;20267;-70
2022/02/15 12:29:19;;;;;;;10.00;2.77;;;12.00;99.90;;;;;;5021352;28;20209;-70
2022/02/15 12:31:53;;;;;;;8.87;3.20;;;12.10;99.90;;;;;;5029033;28;20255;-70
2022/02/15 12:34:23;;;;;;;14.27;3.20;;;12.20;99.90;;;;;;5029519;28;20196;-69
2022/02/15 12:36:52;;;;;;;10.97;2.53;;;12.10;99.90;;;;;;5021878;28;20259;-69
2022/02/15 12:39:21;;;;;;;11.47;2.70;;;12.00;99.90;;;;;;5031984;28;20629;-69
2022/02/15 12:41:52;;;;;;;6.67;2.03;;;11.80;99.90;;;;;;5019160;28;20229;-69
2022/02/15 12:44:20;;;;;;;10.50;2.83;;;11.70;99.90;;;;;;5026928;28;20220;-69
2022/02/15 12:46:49;;;;;;;13.13;5.87;;;11.70;99.90;;;;;;5022362;28;20225;-69
2022/02/15 12:49:18;;;;;;;11.67;2.73;;;11.50;99.90;;;;;;5027517;28;20278;-69
2022/02/15 12:51:48;;;;;;;2.87;2.17;;;11.40;99.90;;;;;;5026700;28;20227;-69
2022/02/15 12:54:19;;;;;;;11.00;2.33;;;11.30;99.90;;;;;;5029317;28;20225;-68
2022/02/15 12:56:48;;;;;;;6.07;2.40;;;11.20;99.90;;;;;;5029591;28;20950;-69
2022/02/15 12:59:21;;;;;;;9.70;3.80;;;11.10;99.90;;;;;;5017567;28;20213;-70
2022/02/15 13:01:57;;;;;;;10.20;4.00;;;11.10;99.90;;;;;;5015667;28;20206;-70
2022/02/15 13:04:27;;;;;;;13.30;2.90;;;11.00;99.90;;;;;;5018588;28;20193;-71
2022/02/15 13:06:56;;;;;;;9.60;2.90;;;10.90;99.90;;;;;;5017569;28;20249;-69
2022/02/15 13:09:30;;;;;;;7.23;4.10;;;10.80;99.90;;;;;;5020459;28;20320;-69
2022/02/15 13:12:00;;;;;;;13.27;4.27;;;11.00;99.90;;;;;;5016625;28;20663;-68
2022/02/15 13:14:30;;;;;;;10.37;4.80;;;11.00;99.90;;;;;;5020895;28;20201;-69